Time;durP1;ratioP1;P1;durP2;ratioP2;P2;SDS_P1;SDS_P2;PMS_P1;PMS_P2;Temp;Humidity;BMP_temperature;BMP_pressure;BME280_temperature;BME280_humidity;BME280_pressure;Samples;Min_cycle;Max_cycle;Signal;HPM_P1;HPM_P2
2020/12/05 00:00:07;;;;;;;47.30;27.88;;;4.40;87.60;;;;;;2055868;28;20063;-69
2020/12/05 00:01:13;;;;;;;47.10;28.15;;;4.50;87.60;;;;;;2056609;28;20105;-69
2020/12/05 00:02:16;;;;;;;47.47;28.27;;;4.50;87.60;;;;;;2056409;28;20799;-69
2020/12/05 00:03:17;;;;;;;48.22;28.00;;;4.50;87.60;;;;;;2055918;28;20030;-69
2020/12/05 00:04:17;;;;;;;46.72;28.02;;;4.50;87.40;;;;;;2056400;28;20035;-69
2020/12/05 00:05:18;;;;;;;45.90;28.00;;;4.50;87.20;;;;;;2056297;28;20031;-69
2020/12/05 00:06:24;;;;;;;44.92;27.48;;;4.50;87.20;;;;;;2055709;28;20066;-69
2020/12/05 00:07:26;;;;;;;47.17;26.67;;;4.50;87.20;;;;;;2055690;28;20651;-69
2020/12/05 00:08:27;;;;;;;46.05;27.48;;;4.50;87.10;;;;;;2055765;28;20118;-69
2020/12/05 00:09:28;;;;;;;47.17;27.67;;;4.50;87.20;;;;;;2055911;28;20035;-69
2020/12/05 00:10:29;;;;;;;44.72;27.13;;;4.50;87.10;;;;;;2056438;28;20031;-69
2020/12/05 00:11:29;;;;;;;46.88;27.80;;;4.50;87.00;;;;;;2055679;28;20023;-69
2020/12/05 00:12:30;;;;;;;46.25;28.10;;;4.50;87.10;;;;;;2055303;28;20030;-69
2020/12/05 00:13:31;;;;;;;44.65;26.80;;;4.60;87.10;;;;;;2056228;28;20117;-69
2020/12/05 00:14:32;;;;;;;45.33;27.63;;;4.50;86.90;;;;;;2056208;28;20062;-69
2020/12/05 00:15:32;;;;;;;46.10;27.50;;;4.50;87.00;;;;;;2056282;28;20584;-69
2020/12/05 00:16:33;;;;;;;46.17;27.30;;;4.50;87.00;;;;;;2056372;28;20450;-69
2020/12/05 00:17:34;;;;;;;45.50;27.13;;;4.50;87.00;;;;;;2056231;28;20023;-69
2020/12/05 00:18:34;;;;;;;44.10;26.90;;;4.50;87.10;;;;;;2056159;28;20410;-69
2020/12/05 00:19:35;;;;;;;45.15;26.35;;;4.50;87.00;;;;;;2055283;28;20034;-69
2020/12/05 00:20:37;;;;;;;45.08;27.45;;;4.50;87.10;;;;;;2055528;28;20030;-69
2020/12/05 00:21:37;;;;;;;47.13;28.02;;;4.60;87.00;;;;;;2056031;28;20030;-69
2020/12/05 00:22:38;;;;;;;43.53;26.00;;;4.50;86.90;;;;;;2055719;28;20759;-69
2020/12/05 00:23:39;;;;;;;47.10;26.88;;;4.60;86.90;;;;;;2056144;28;20818;-69
2020/12/05 00:24:39;;;;;;;44.05;26.52;;;4.50;86.80;;;;;;2056154;28;20225;-69
2020/12/05 00:25:40;;;;;;;44.08;26.45;;;4.50;86.90;;;;;;2055636;28;20027;-69
2020/12/05 00:26:42;;;;;;;45.35;27.73;;;4.60;87.00;;;;;;2055505;28;20074;-68
2020/12/05 00:27:42;;;;;;;43.30;26.40;;;4.60;87.00;;;;;;2056199;28;20034;-68
2020/12/05 00:28:44;;;;;;;44.10;26.20;;;4.60;86.90;;;;;;2056162;28;20027;-69
2020/12/05 00:29:44;;;;;;;45.08;26.25;;;4.60;86.90;;;;;;2055732;28;20782;-69
2020/12/05 00:30:45;;;;;;;44.83;26.80;;;4.60;86.90;;;;;;2056176;28;20026;-68
2020/12/05 00:31:53;;;;;;;42.55;26.60;;;4.60;86.80;;;;;;2056072;28;20089;-69
2020/12/05 00:32:56;;;;;;;42.08;26.10;;;4.60;86.90;;;;;;2055621;28;20545;-69
2020/12/05 00:33:57;;;;;;;46.50;26.98;;;4.60;86.80;;;;;;2056071;28;20074;-69
2020/12/05 00:34:58;;;;;;;43.88;25.85;;;4.60;86.80;;;;;;2055541;28;20485;-69
2020/12/05 00:35:58;;;;;;;41.90;25.50;;;4.60;86.80;;;;;;2055433;28;20834;-69
2020/12/05 00:36:59;;;;;;;44.10;26.70;;;4.60;86.90;;;;;;2056142;28;20069;-69
2020/12/05 00:38:00;;;;;;;42.35;25.90;;;4.60;86.90;;;;;;2055979;28;20097;-69
2020/12/05 00:39:00;;;;;;;44.72;26.80;;;4.60;86.90;;;;;;2055904;28;20740;-69
2020/12/05 00:40:01;;;;;;;46.83;26.85;;;4.60;86.80;;;;;;2055945;28;20027;-69
2020/12/05 00:41:04;;;;;;;45.25;26.40;;;4.60;86.60;;;;;;2056187;28;20030;-69
2020/12/05 00:42:04;;;;;;;43.20;25.40;;;4.60;86.60;;;;;;2056074;28;20038;-69
2020/12/05 00:43:05;;;;;;;44.15;25.58;;;4.60;86.50;;;;;;2055608;28;20031;-68
2020/12/05 00:44:06;;;;;;;44.35;25.58;;;4.60;86.40;;;;;;2056095;28;20059;-69
2020/12/05 00:45:07;;;;;;;46.05;26.55;;;4.60;86.30;;;;;;2056120;28;20031;-68
2020/12/05 00:46:08;;;;;;;43.58;26.20;;;4.70;86.30;;;;;;2055328;28;20446;-68
2020/12/05 00:47:08;;;;;;;43.45;25.88;;;4.60;86.20;;;;;;2055469;28;20027;-69
2020/12/05 00:48:09;;;;;;;43.13;25.85;;;4.70;86.30;;;;;;2056026;28;20030;-69
2020/12/05 00:49:10;;;;;;;44.17;26.25;;;4.70;86.10;;;;;;2055776;28;20027;-68
2020/12/05 00:50:11;;;;;;;39.95;24.92;;;4.70;86.20;;;;;;2055313;28;20041;-69
2020/12/05 00:51:12;;;;;;;43.60;26.30;;;4.70;86.30;;;;;;2055443;28;20026;-68
2020/12/05 00:52:16;;;;;;;43.67;26.33;;;4.70;86.20;;;;;;2047912;28;20027;-69
2020/12/05 00:53:17;;;;;;;42.63;25.65;;;4.70;86.10;;;;;;2055157;28;20047;-69
2020/12/05 00:54:18;;;;;;;43.00;25.80;;;4.70;86.20;;;;;;2055758;28;20022;-69
2020/12/05 00:55:20;;;;;;;42.40;25.48;;;4.70;86.10;;;;;;2055436;28;20053;-69
2020/12/05 00:56:21;;;;;;;41.60;25.02;;;4.70;86.10;;;;;;2055393;28;20031;-68
2020/12/05 00:57:22;;;;;;;45.80;26.83;;;4.70;86.20;;;;;;2056091;28;20027;-68
2020/12/05 00:58:23;;;;;;;43.17;25.23;;;4.70;86.00;;;;;;2056139;28;20046;-68
2020/12/05 00:59:23;;;;;;;42.35;24.98;;;4.70;86.00;;;;;;2055762;28;20034;-68
2020/12/05 01:00:24;;;;;;;42.40;25.25;;;4.70;85.80;;;;;;2055267;28;20027;-68
2020/12/05 01:01:25;;;;;;;43.83;25.27;;;4.80;85.80;;;;;;2055523;28;20088;-68
2020/12/05 01:02:26;;;;;;;40.88;25.20;;;4.80;85.70;;;;;;2054944;28;20035;-68
2020/12/05 01:03:27;;;;;;;43.13;25.33;;;4.80;85.70;;;;;;2055586;28;20462;-68
2020/12/05 01:04:28;;;;;;;42.13;25.45;;;4.70;85.60;;;;;;2056073;28;20081;-68
2020/12/05 01:05:29;;;;;;;44.67;26.42;;;4.70;85.70;;;;;;2056129;28;20078;-69
2020/12/05 01:06:30;;;;;;;43.42;25.35;;;4.80;85.80;;;;;;2055616;28;20034;-69
2020/12/05 01:07:31;;;;;;;43.58;25.35;;;4.70;85.60;;;;;;2055575;28;20502;-69
2020/12/05 01:08:31;;;;;;;43.30;25.17;;;4.70;85.80;;;;;;2056076;28;20053;-68
2020/12/05 01:09:32;;;;;;;43.70;25.15;;;4.70;85.70;;;;;;2054937;28;20031;-68
2020/12/05 01:10:34;;;;;;;41.75;24.77;;;4.80;85.70;;;;;;2055622;28;20469;-68
2020/12/05 01:11:34;;;;;;;41.55;24.55;;;4.80;85.70;;;;;;2055525;28;20019;-68
2020/12/05 01:12:35;;;;;;;41.22;24.75;;;4.70;85.60;;;;;;2055072;28;20037;-68
2020/12/05 01:13:36;;;;;;;43.30;24.67;;;4.70;85.60;;;;;;2056021;28;20027;-68
2020/12/05 01:14:36;;;;;;;40.53;24.38;;;4.70;85.70;;;;;;2056091;28;20015;-68
2020/12/05 01:15:37;;;;;;;40.20;24.35;;;4.70;85.70;;;;;;2055243;28;20026;-68
2020/12/05 01:16:38;;;;;;;40.88;24.45;;;4.80;85.80;;;;;;2055434;28;20030;-68
2020/12/05 01:17:39;;;;;;;38.75;23.38;;;4.70;85.70;;;;;;2055312;28;20348;-69
2020/12/05 01:18:40;;;;;;;39.97;24.20;;;4.70;85.70;;;;;;2055283;28;20086;-68
2020/12/05 01:19:41;;;;;;;39.70;24.67;;;4.70;85.70;;;;;;2055583;28;20027;-68
2020/12/05 01:20:41;;;;;;;39.47;24.02;;;4.70;85.80;;;;;;2056147;28;20027;-68
2020/12/05 01:21:46;;;;;;;39.78;23.63;;;4.70;85.90;;;;;;2055810;28;20034;-68
2020/12/05 01:22:47;;;;;;;39.78;24.27;;;4.70;86.70;;;;;;2054956;28;20537;-68
2020/12/05 01:23:47;;;;;;;42.22;25.08;;;4.70;86.00;;;;;;2055315;28;20636;-68
2020/12/05 01:24:49;;;;;;;39.88;24.10;;;4.70;86.10;;;;;;2056069;28;20098;-68
2020/12/05 01:25:50;;;;;;;42.95;24.85;;;4.70;86.30;;;;;;2055311;28;20039;-68
2020/12/05 01:26:51;;;;;;;41.30;24.92;;;4.70;86.30;;;;;;2055502;28;20030;-68
2020/12/05 01:27:51;;;;;;;37.78;22.60;;;4.70;86.20;;;;;;2055991;28;20117;-68
2020/12/05 01:28:52;;;;;;;41.47;23.77;;;4.70;86.20;;;;;;2055854;28;20094;-68
2020/12/05 01:29:52;;;;;;;38.85;23.13;;;4.70;86.30;;;;;;2055545;28;20031;-68
2020/12/05 01:30:53;;;;;;;38.60;23.10;;;4.70;86.30;;;;;;2055912;28;20518;-68
2020/12/05 01:31:54;;;;;;;40.08;23.15;;;4.70;86.30;;;;;;2055975;28;20459;-68
2020/12/05 01:32:55;;;;;;;39.75;23.88;;;4.70;86.50;;;;;;2055595;28;20113;-68
2020/12/05 01:33:56;;;;;;;39.00;23.50;;;4.70;86.50;;;;;;2055850;28;20058;-68
2020/12/05 01:34:56;;;;;;;40.40;24.20;;;4.70;86.40;;;;;;2063156;28;20449;-68
2020/12/05 01:36:01;;;;;;;39.67;23.52;;;4.70;86.30;;;;;;2063345;28;20033;-68
2020/12/05 01:37:02;;;;;;;39.22;23.20;;;4.70;86.30;;;;;;2055923;28;20031;-68
2020/12/05 01:38:02;;;;;;;39.67;24.08;;;4.70;86.40;;;;;;2056023;28;20505;-69
2020/12/05 01:39:03;;;;;;;40.25;23.35;;;4.70;86.60;;;;;;2054904;28;20037;-69
2020/12/05 01:40:04;;;;;;;39.63;23.65;;;4.60;86.70;;;;;;2055168;28;20548;-69
2020/12/05 01:41:06;;;;;;;38.45;23.25;;;4.70;86.70;;;;;;2063247;28;20038;-69
2020/12/05 01:42:07;;;;;;;42.08;24.75;;;4.70;86.70;;;;;;2063313;28;20054;-69
2020/12/05 01:43:07;;;;;;;40.58;24.52;;;4.70;86.60;;;;;;2054846;28;20035;-69
2020/12/05 01:44:08;;;;;;;42.90;24.13;;;4.70;86.50;;;;;;2055242;28;20026;-69
2020/12/05 01:45:09;;;;;;;40.38;23.88;;;4.70;86.50;;;;;;2055749;28;20475;-69
2020/12/05 01:46:30;;;;;;;39.10;23.45;;;4.70;86.50;;;;;;2055845;28;20767;-69
2020/12/05 01:47:31;;;;;;;39.03;23.75;;;4.70;86.50;;;;;;2055743;28;20397;-69
2020/12/05 01:48:33;;;;;;;39.08;23.67;;;4.70;86.60;;;;;;2055836;28;20022;-68
2020/12/05 01:49:33;;;;;;;40.97;23.70;;;4.70;86.70;;;;;;2055155;28;20038;-68
2020/12/05 01:50:34;;;;;;;40.42;23.75;;;4.70;86.70;;;;;;2055698;28;20027;-69
2020/12/05 01:51:36;;;;;;;38.75;23.60;;;4.80;86.70;;;;;;2055651;28;20094;-68
2020/12/05 01:52:37;;;;;;;36.63;22.30;;;4.70;86.60;;;;;;2055246;28;20023;-68
2020/12/05 01:53:38;;;;;;;39.95;23.75;;;4.70;86.50;;;;;;2055849;28;20787;-68
2020/12/05 01:54:39;;;;;;;39.13;23.85;;;4.70;86.50;;;;;;2055814;28;20022;-68
2020/12/05 01:55:43;;;;;;;38.15;23.02;;;4.70;86.60;;;;;;2055668;28;20145;-68
2020/12/05 01:56:44;;;;;;;38.15;23.08;;;4.80;86.70;;;;;;2055812;28;20109;-68
2020/12/05 01:57:45;;;;;;;39.70;24.17;;;4.70;86.70;;;;;;2055775;28;20018;-68
2020/12/05 01:58:46;;;;;;;38.47;23.08;;;4.80;86.70;;;;;;2055849;28;20046;-68
2020/12/05 01:59:47;;;;;;;37.78;22.88;;;4.80;86.60;;;;;;2055310;28;20426;-68
2020/12/05 02:00:48;;;;;;;39.03;22.38;;;4.80;86.60;;;;;;2054983;28;20099;-68
2020/12/05 02:01:51;;;;;;;38.70;23.23;;;4.80;86.60;;;;;;2055120;28;20067;-68
2020/12/05 02:02:52;;;;;;;39.50;23.63;;;4.80;86.60;;;;;;2055314;28;20031;-68
2020/12/05 02:03:57;;;;;;;39.05;23.67;;;4.80;86.60;;;;;;2055643;28;20474;-68
2020/12/05 02:05:16;;;;;;;40.90;24.15;;;4.80;86.40;;;;;;2055190;28;20031;-68
2020/12/05 02:06:46;;;;;;;39.50;23.45;;;4.80;86.60;;;;;;2050641;28;20034;-68
2020/12/05 02:08:00;;;;;;;38.25;23.15;;;4.80;86.50;;;;;;2056986;28;20570;-68
2020/12/05 02:09:09;;;;;;;41.17;23.45;;;4.80;86.50;;;;;;2056992;28;20039;-69
2020/12/05 02:10:15;;;;;;;38.15;22.63;;;4.80;86.60;;;;;;2057168;28;20538;-69
2020/12/05 02:11:21;;;;;;;39.75;23.02;;;4.90;86.60;;;;;;2057203;28;20031;-69
2020/12/05 02:12:37;;;;;;;40.50;23.70;;;4.90;86.50;;;;;;2057175;28;20613;-69
2020/12/05 02:13:43;;;;;;;39.85;23.92;;;4.90;86.50;;;;;;2064637;28;20030;-69
2020/12/05 02:14:48;;;;;;;41.33;23.58;;;4.90;86.70;;;;;;2064059;28;20010;-69
2020/12/05 02:15:49;;;;;;;39.78;23.52;;;4.90;86.70;;;;;;2057227;28;20485;-69
2020/12/05 02:16:52;;;;;;;38.00;23.05;;;4.90;86.50;;;;;;2064459;28;20473;-69
2020/12/05 02:18:04;;;;;;;38.88;23.42;;;4.90;86.50;;;;;;2064350;28;20026;-69
2020/12/05 02:19:07;;;;;;;38.33;22.33;;;4.90;86.50;;;;;;2056938;28;20070;-68
2020/12/05 02:20:09;;;;;;;39.20;23.33;;;4.90;86.50;;;;;;2057078;28;20050;-69
2020/12/05 02:21:12;;;;;;;39.60;23.23;;;4.90;86.50;;;;;;2056510;28;20106;-69
2020/12/05 02:22:18;;;;;;;36.40;22.27;;;4.90;86.70;;;;;;2056369;28;20560;-69
2020/12/05 02:23:20;;;;;;;38.67;23.60;;;4.80;86.70;;;;;;2056793;28;20113;-69
2020/12/05 02:24:21;;;;;;;37.00;22.45;;;4.90;86.80;;;;;;2057117;28;20077;-69
2020/12/05 02:25:22;;;;;;;37.40;22.25;;;4.90;86.80;;;;;;2057120;28;20030;-69
2020/12/05 02:26:23;;;;;;;35.85;22.33;;;4.90;86.80;;;;;;2058377;28;20035;-69
2020/12/05 02:27:25;;;;;;;38.08;23.10;;;4.90;86.70;;;;;;2057050;28;20053;-69
2020/12/05 02:28:26;;;;;;;39.55;23.17;;;4.90;86.70;;;;;;2057015;28;20031;-69
2020/12/05 02:29:27;;;;;;;35.08;21.73;;;5.00;86.70;;;;;;2056759;28;20026;-69
2020/12/05 02:30:32;;;;;;;39.38;23.65;;;5.00;86.60;;;;;;2056913;28;20027;-69
2020/12/05 02:31:33;;;;;;;38.85;23.17;;;4.90;86.50;;;;;;2057146;28;20031;-69
2020/12/05 02:32:33;;;;;;;40.20;23.63;;;5.00;86.50;;;;;;2056749;28;20035;-69
2020/12/05 02:33:34;;;;;;;39.42;23.33;;;5.00;86.50;;;;;;2056351;28;20030;-69
2020/12/05 02:34:35;;;;;;;40.67;23.27;;;5.00;86.40;;;;;;2056489;28;20069;-69
2020/12/05 02:35:36;;;;;;;36.40;22.20;;;5.00;86.20;;;;;;2056312;28;20030;-69
2020/12/05 02:36:38;;;;;;;36.00;21.88;;;5.10;86.20;;;;;;2056415;28;20594;-69
2020/12/05 02:37:41;;;;;;;38.13;21.95;;;5.10;85.90;;;;;;2056339;28;20027;-69
2020/12/05 02:38:52;;;;;;;37.78;22.05;;;5.10;86.00;;;;;;2056277;28;20030;-69
2020/12/05 02:39:56;;;;;;;38.45;21.90;;;5.10;85.90;;;;;;2056619;28;20556;-69
2020/12/05 02:40:57;;;;;;;37.47;22.42;;;5.10;85.90;;;;;;2057009;28;20762;-69
2020/12/05 02:41:57;;;;;;;36.45;22.25;;;5.10;85.80;;;;;;2057107;28;20113;-69
2020/12/05 02:42:58;;;;;;;36.33;22.08;;;5.20;85.80;;;;;;2055971;28;20546;-69
2020/12/05 02:44:01;;;;;;;36.20;21.80;;;5.20;85.70;;;;;;2056292;28;20066;-69
2020/12/05 02:45:02;;;;;;;35.78;21.65;;;5.10;85.50;;;;;;2057093;28;20035;-69
2020/12/05 02:46:02;;;;;;;37.75;22.00;;;5.20;85.50;;;;;;2057120;28;20401;-69
2020/12/05 02:47:03;;;;;;;34.83;21.58;;;5.20;85.40;;;;;;2057005;28;20049;-69
2020/12/05 02:48:04;;;;;;;36.60;21.27;;;5.20;85.30;;;;;;2057070;28;20031;-69
2020/12/05 02:49:04;;;;;;;36.50;21.55;;;5.30;85.30;;;;;;2056774;28;20060;-69
2020/12/05 02:50:06;;;;;;;37.03;21.90;;;5.20;85.20;;;;;;2056958;28;20085;-69
2020/12/05 02:51:07;;;;;;;35.88;21.67;;;5.30;85.20;;;;;;2056963;28;20074;-69
2020/12/05 02:52:08;;;;;;;38.28;22.80;;;5.30;85.20;;;;;;2056925;28;20485;-69
2020/12/05 02:53:09;;;;;;;34.97;21.85;;;5.30;85.20;;;;;;2056513;28;20833;-69
2020/12/05 02:54:09;;;;;;;35.60;21.35;;;5.30;85.20;;;;;;2057039;28;20086;-69
2020/12/05 02:55:10;;;;;;;36.13;21.85;;;5.30;85.00;;;;;;2056988;28;20065;-69
2020/12/05 02:56:16;;;;;;;35.78;22.23;;;5.30;85.00;;;;;;2057139;28;20356;-69
2020/12/05 02:57:16;;;;;;;37.58;21.30;;;5.30;85.10;;;;;;2056927;28;20057;-69
2020/12/05 02:58:17;;;;;;;35.65;22.20;;;5.30;85.20;;;;;;2056126;28;20497;-69
2020/12/05 02:59:18;;;;;;;35.40;21.83;;;5.30;85.90;;;;;;2055962;28;20072;-69
2020/12/05 03:00:19;;;;;;;35.00;21.45;;;5.30;85.30;;;;;;2056732;28;20450;-69
2020/12/05 03:01:19;;;;;;;35.97;21.70;;;5.30;85.20;;;;;;2056204;28;20053;-69
2020/12/05 03:02:20;;;;;;;34.28;21.55;;;5.30;85.40;;;;;;2056222;28;20042;-69
2020/12/05 03:03:21;;;;;;;38.58;22.60;;;5.30;85.30;;;;;;2056400;28;20033;-69
2020/12/05 03:04:22;;;;;;;38.88;22.58;;;5.30;85.40;;;;;;2056194;28;20023;-69
2020/12/05 03:05:23;;;;;;;38.95;23.27;;;5.30;85.40;;;;;;2056380;28;20035;-69
2020/12/05 03:06:24;;;;;;;37.85;21.85;;;5.30;85.50;;;;;;2056908;28;20050;-69
2020/12/05 03:07:24;;;;;;;36.67;22.20;;;5.30;85.60;;;;;;2056893;28;20379;-69
2020/12/05 03:08:25;;;;;;;36.15;21.75;;;5.30;85.60;;;;;;2056912;28;20553;-69
2020/12/05 03:09:25;;;;;;;36.42;21.80;;;5.30;85.60;;;;;;2056492;28;20038;-69
2020/12/05 03:10:26;;;;;;;36.97;22.35;;;5.30;85.60;;;;;;2056590;28;20023;-69
2020/12/05 03:11:27;;;;;;;39.05;22.35;;;5.30;85.60;;;;;;2056829;28;20505;-69
2020/12/05 03:12:27;;;;;;;36.35;21.80;;;5.30;85.50;;;;;;2056366;28;20026;-69
2020/12/05 03:13:28;;;;;;;36.00;22.08;;;5.30;85.60;;;;;;2056337;28;20035;-69
2020/12/05 03:14:29;;;;;;;34.72;22.00;;;5.30;85.80;;;;;;2056353;28;20526;-69
2020/12/05 03:15:30;;;;;;;35.53;21.60;;;5.30;85.70;;;;;;2056160;28;20458;-69
2020/12/05 03:16:30;;;;;;;34.67;21.38;;;5.30;85.80;;;;;;2056212;28;20106;-68
2020/12/05 03:17:31;;;;;;;35.85;21.25;;;5.30;85.80;;;;;;2064161;28;20403;-68
2020/12/05 03:18:32;;;;;;;33.45;21.35;;;5.30;85.80;;;;;;2064243;28;20034;-68
2020/12/05 03:19:33;;;;;;;35.28;21.33;;;5.30;85.70;;;;;;2056409;28;20034;-68
2020/12/05 03:20:33;;;;;;;35.40;21.60;;;5.30;85.90;;;;;;2056674;28;20113;-68
2020/12/05 03:21:34;;;;;;;38.47;22.38;;;5.30;86.00;;;;;;2056462;28;20029;-68
2020/12/05 03:22:35;;;;;;;33.28;21.02;;;5.20;86.00;;;;;;2056179;28;20030;-68
2020/12/05 03:23:35;;;;;;;36.10;22.02;;;5.30;86.00;;;;;;2056700;28;20022;-68
2020/12/05 03:24:36;;;;;;;32.40;20.98;;;5.30;85.80;;;;;;2055864;28;20416;-67
2020/12/05 03:25:37;;;;;;;34.00;20.90;;;5.40;85.70;;;;;;2056027;28;20038;-68
2020/12/05 03:26:37;;;;;;;30.73;19.88;;;5.40;85.60;;;;;;2056663;28;20115;-68
2020/12/05 03:27:38;;;;;;;36.58;22.02;;;5.40;85.60;;;;;;2056648;28;20387;-68
2020/12/05 03:28:39;;;;;;;35.60;21.65;;;5.30;85.60;;;;;;2056618;28;20105;-68
2020/12/05 03:29:41;;;;;;;37.17;22.15;;;5.40;85.90;;;;;;2056229;28;20035;-68
2020/12/05 03:30:41;;;;;;;35.28;21.65;;;5.30;85.90;;;;;;2056711;28;20821;-68
2020/12/05 03:32:18;;;;;;;33.28;20.65;;;5.30;86.00;;;;;;2056641;28;20027;-68
2020/12/05 03:33:12;;;;;;;34.10;20.52;;;5.30;86.10;;;;;;2054923;28;20049;-68
2020/12/05 03:34:14;;;;;;;36.00;21.65;;;5.40;86.10;;;;;;2056561;28;20037;-67
2020/12/05 03:35:15;;;;;;;33.85;20.75;;;5.40;86.10;;;;;;2056673;28;20027;-68
2020/12/05 03:36:17;;;;;;;32.40;20.52;;;5.40;86.00;;;;;;2055842;28;20118;-68
2020/12/05 03:37:19;;;;;;;34.17;21.10;;;5.40;86.00;;;;;;2055912;28;20029;-68
2020/12/05 03:38:20;;;;;;;32.67;20.65;;;5.40;86.00;;;;;;2056403;28;20027;-68
2020/12/05 03:39:21;;;;;;;34.45;21.30;;;5.40;86.10;;;;;;2056120;28;20118;-68
2020/12/05 03:40:21;;;;;;;35.35;21.00;;;5.40;86.30;;;;;;2056466;28;20118;-68
2020/12/05 03:41:23;;;;;;;33.47;20.75;;;5.40;86.10;;;;;;2056598;28;20073;-68
2020/12/05 03:42:23;;;;;;;33.42;20.75;;;5.40;86.10;;;;;;2056493;28;20031;-68
2020/12/05 03:43:24;;;;;;;34.25;20.52;;;5.40;86.30;;;;;;2056502;28;20031;-68
2020/12/05 03:44:25;;;;;;;34.25;20.95;;;5.40;86.30;;;;;;2056438;28;20034;-68
2020/12/05 03:45:26;;;;;;;32.80;20.42;;;5.40;86.30;;;;;;2056450;28;20535;-68
2020/12/05 03:46:27;;;;;;;32.83;20.90;;;5.40;86.30;;;;;;2056439;28;20142;-68
2020/12/05 03:47:28;;;;;;;33.38;21.13;;;5.40;86.20;;;;;;2056490;28;20097;-68
2020/12/05 03:48:29;;;;;;;34.03;21.08;;;5.50;86.20;;;;;;2056597;28;20509;-68
2020/12/05 03:49:33;;;;;;;32.17;20.80;;;5.50;86.20;;;;;;2056175;28;20037;-68
2020/12/05 03:50:33;;;;;;;31.90;20.35;;;5.50;86.20;;;;;;2056378;28;20574;-68
2020/12/05 03:51:34;;;;;;;32.78;20.75;;;5.40;86.30;;;;;;2055802;28;20026;-68
2020/12/05 03:52:35;;;;;;;30.90;20.48;;;5.40;86.30;;;;;;2055322;28;20134;-68
2020/12/05 03:53:35;;;;;;;32.88;20.52;;;5.50;86.40;;;;;;2055846;28;20027;-68
2020/12/05 03:54:36;;;;;;;32.45;20.33;;;5.40;86.40;;;;;;2055819;28;20113;-68
2020/12/05 03:55:37;;;;;;;33.33;21.13;;;5.40;86.70;;;;;;2056365;28;20425;-68
2020/12/05 03:56:37;;;;;;;33.25;21.33;;;5.40;86.60;;;;;;2056299;28;20062;-68
2020/12/05 03:57:38;;;;;;;31.98;20.42;;;5.40;86.70;;;;;;2056167;28;20080;-68
2020/12/05 03:58:39;;;;;;;34.38;20.85;;;5.40;86.80;;;;;;2056304;28;20034;-67
2020/12/05 03:59:40;;;;;;;34.38;20.90;;;5.40;87.00;;;;;;2056113;28;20030;-68
2020/12/05 04:00:40;;;;;;;33.65;20.73;;;5.40;87.00;;;;;;2055642;28;20113;-68
2020/12/05 04:01:41;;;;;;;32.50;20.40;;;5.40;87.00;;;;;;2055662;28;20065;-68
2020/12/05 04:02:42;;;;;;;33.42;21.27;;;5.40;86.90;;;;;;2055169;28;20093;-67
2020/12/05 04:03:42;;;;;;;35.15;20.95;;;5.50;86.90;;;;;;2055588;28;20482;-69
2020/12/05 04:04:43;;;;;;;31.88;21.00;;;5.50;86.70;;;;;;2056159;28;20443;-68
2020/12/05 04:05:44;;;;;;;31.73;19.58;;;5.50;86.60;;;;;;2063499;28;20038;-67
2020/12/05 04:06:44;;;;;;;31.50;20.08;;;5.50;86.50;;;;;;2063545;28;20022;-68
2020/12/05 04:07:45;;;;;;;30.85;20.20;;;5.50;86.70;;;;;;2056191;28;20031;-68
2020/12/05 04:08:46;;;;;;;33.83;20.80;;;5.50;86.60;;;;;;2056230;28;20034;-68
2020/12/05 04:09:46;;;;;;;31.42;19.92;;;5.50;86.60;;;;;;2055974;28;20026;-68
2020/12/05 04:10:47;;;;;;;32.45;19.77;;;5.60;86.60;;;;;;2056266;28;20022;-68
2020/12/05 04:11:48;;;;;;;35.33;20.98;;;5.50;86.40;;;;;;2055656;28;20478;-68
2020/12/05 04:12:49;;;;;;;33.05;20.42;;;5.50;86.50;;;;;;2055205;28;20106;-68
2020/12/05 04:13:49;;;;;;;33.70;20.17;;;5.50;86.60;;;;;;2056324;28;20015;-69
2020/12/05 04:14:50;;;;;;;31.10;19.45;;;5.50;86.70;;;;;;2056238;28;20034;-68
2020/12/05 04:15:51;;;;;;;32.40;20.02;;;5.50;86.60;;;;;;2055623;28;20414;-68
2020/12/05 04:16:51;;;;;;;32.05;20.38;;;5.50;86.70;;;;;;2055802;28;20035;-68
2020/12/05 04:17:52;;;;;;;31.45;20.17;;;5.50;86.80;;;;;;2056364;28;20031;-69
2020/12/05 04:18:53;;;;;;;32.25;20.60;;;5.50;86.80;;;;;;2056319;28;20035;-69
2020/12/05 04:19:53;;;;;;;31.23;20.13;;;5.40;86.80;;;;;;2056066;28;20082;-69
2020/12/05 04:20:54;;;;;;;31.13;20.00;;;5.50;87.10;;;;;;2056496;28;20129;-68
2020/12/05 04:21:55;;;;;;;32.65;20.13;;;5.50;87.00;;;;;;2056114;28;20058;-68
2020/12/05 04:22:56;;;;;;;31.50;20.05;;;5.50;86.90;;;;;;2055822;28;20026;-69
2020/12/05 04:23:56;;;;;;;31.55;20.30;;;5.50;86.90;;;;;;2056341;28;20030;-68
2020/12/05 04:24:57;;;;;;;31.45;20.20;;;5.50;86.90;;;;;;2056332;28;20022;-68
2020/12/05 04:25:57;;;;;;;31.83;20.10;;;5.50;86.90;;;;;;2056496;28;20374;-68
2020/12/05 04:26:58;;;;;;;31.27;20.10;;;5.50;86.90;;;;;;2056526;28;20042;-68
2020/12/05 04:27:59;;;;;;;30.58;19.75;;;5.50;86.90;;;;;;2056234;28;20033;-68
2020/12/05 04:28:59;;;;;;;30.73;19.73;;;5.50;87.00;;;;;;2055548;28;20130;-68
2020/12/05 04:30:00;;;;;;;30.45;19.45;;;5.50;87.00;;;;;;2055243;28;20495;-68
2020/12/05 04:31:01;;;;;;;30.05;19.60;;;5.50;86.90;;;;;;2055567;28;20089;-68
2020/12/05 04:32:02;;;;;;;31.52;19.33;;;5.60;87.00;;;;;;2055455;28;20852;-68
2020/12/05 04:33:02;;;;;;;31.48;19.23;;;5.60;86.90;;;;;;2055186;28;20080;-67
2020/12/05 04:34:03;;;;;;;31.83;19.25;;;5.50;86.80;;;;;;2055588;28;20023;-67
2020/12/05 04:35:04;;;;;;;31.20;19.50;;;5.60;87.00;;;;;;2056202;28;20508;-67
2020/12/05 04:36:05;;;;;;;31.30;19.85;;;5.60;86.80;;;;;;2056074;28;20340;-67
2020/12/05 04:37:05;;;;;;;30.65;19.13;;;5.70;86.70;;;;;;2055647;28;20027;-67
2020/12/05 04:38:06;;;;;;;31.23;19.35;;;5.70;86.70;;;;;;2055560;28;20026;-67
2020/12/05 04:39:06;;;;;;;30.25;18.85;;;5.60;86.60;;;;;;2055698;28;20058;-67
2020/12/05 04:40:07;;;;;;;30.52;19.88;;;5.60;86.60;;;;;;2056210;28;20042;-67
2020/12/05 04:41:08;;;;;;;29.58;18.83;;;5.70;86.60;;;;;;2056329;28;20057;-67
2020/12/05 04:42:08;;;;;;;28.60;18.85;;;5.70;86.50;;;;;;2055428;28;20126;-67
2020/12/05 04:43:09;;;;;;;29.63;19.23;;;5.70;86.40;;;;;;2055087;28;20023;-70
2020/12/05 04:44:10;;;;;;;29.38;18.90;;;5.70;86.40;;;;;;2056255;28;20042;-70
2020/12/05 04:45:12;;;;;;;28.83;18.88;;;5.70;86.30;;;;;;2056153;28;20042;-68
2020/12/05 04:46:15;;;;;;;27.83;18.52;;;5.80;86.30;;;;;;2056329;28;20066;-70
2020/12/05 04:47:16;;;;;;;30.35;18.40;;;5.80;86.00;;;;;;2056124;28;20125;-68
2020/12/05 04:48:17;;;;;;;28.10;18.23;;;5.90;86.00;;;;;;2055451;28;20030;-67
2020/12/05 04:49:20;;;;;;;28.52;18.77;;;5.90;85.80;;;;;;2047400;29;20567;-68
2020/12/05 04:50:23;;;;;;;29.05;18.58;;;5.90;85.70;;;;;;2055834;28;20074;-68
2020/12/05 04:51:30;;;;;;;31.40;18.38;;;5.90;85.60;;;;;;2056224;28;20132;-67
2020/12/05 04:52:41;;;;;;;27.02;18.13;;;6.00;85.70;;;;;;2055276;28;20038;-68
2020/12/05 04:53:45;;;;;;;29.10;18.50;;;5.90;85.60;;;;;;2055615;28;20033;-67
2020/12/05 04:54:51;;;;;;;29.88;19.00;;;5.90;85.50;;;;;;2056115;28;20019;-67
2020/12/05 04:55:56;;;;;;;29.27;18.38;;;5.90;85.60;;;;;;2056078;28;20038;-67
2020/12/05 04:56:59;;;;;;;29.42;18.52;;;5.90;85.60;;;;;;2056043;28;20546;-67
2020/12/05 04:58:00;;;;;;;28.65;18.60;;;5.90;85.70;;;;;;2056005;28;20042;-67
2020/12/05 04:59:04;;;;;;;30.10;18.92;;;5.90;85.80;;;;;;2055837;28;20110;-68
2020/12/05 05:00:06;;;;;;;30.27;19.02;;;5.90;85.70;;;;;;2055388;28;20034;-67
2020/12/05 05:01:09;;;;;;;26.95;18.08;;;5.90;85.70;;;;;;2055499;28;20031;-68
2020/12/05 05:02:11;;;;;;;29.08;18.83;;;5.90;85.80;;;;;;2055446;28;20154;-67
2020/12/05 05:03:15;;;;;;;27.15;18.80;;;6.00;85.90;;;;;;2055696;28;20029;-67
2020/12/05 05:04:16;;;;;;;30.50;19.20;;;6.00;85.90;;;;;;2056010;28;20027;-67
2020/12/05 05:05:17;;;;;;;30.70;19.77;;;6.00;85.80;;;;;;2056210;28;20134;-70
2020/12/05 05:06:19;;;;;;;31.48;19.83;;;6.00;85.90;;;;;;2056052;28;20038;-67
2020/12/05 05:07:20;;;;;;;29.38;19.00;;;6.00;86.00;;;;;;2056168;28;20034;-67
2020/12/05 05:08:26;;;;;;;30.02;19.27;;;5.90;86.20;;;;;;2056033;28;20455;-67
2020/12/05 05:09:26;;;;;;;28.00;18.38;;;6.00;86.20;;;;;;2055671;28;20541;-70
2020/12/05 05:10:29;;;;;;;30.33;18.70;;;6.00;86.10;;;;;;2055894;28;20027;-67
2020/12/05 05:11:30;;;;;;;29.27;18.70;;;6.00;86.00;;;;;;2056040;28;20471;-67
2020/12/05 05:12:33;;;;;;;28.50;18.98;;;6.00;86.00;;;;;;2055514;28;20081;-70
2020/12/05 05:14:00;;;;;;;28.25;17.98;;;6.00;86.10;;;;;;2056008;28;20145;-67
2020/12/05 05:15:01;;;;;;;29.38;18.55;;;6.00;86.10;;;;;;2056097;28;20042;-68
2020/12/05 05:16:14;;;;;;;28.75;18.98;;;6.00;86.20;;;;;;2055969;28;20031;-68
2020/12/05 05:17:15;;;;;;;30.05;18.65;;;6.00;86.10;;;;;;2056143;28;20077;-68